sensor_id;sensor_type;location;lat;lon;timestamp;P1;durP1;ratioP1;P2;durP2;ratioP2
72413;SDS011;60995;52.154;4.498;2023-07-31T00:00:50;35.80;;;9.55;;
72413;SDS011;60995;52.154;4.498;2023-07-31T00:03:06;33.70;;;8.32;;
72413;SDS011;60995;52.154;4.498;2023-07-31T00:05:22;31.75;;;8.13;;
72413;SDS011;60995;52.154;4.498;2023-07-31T00:07:39;36.17;;;8.52;;
72413;SDS011;60995;52.154;4.498;2023-07-31T00:09:55;39.78;;;8.82;;
72413;SDS011;60995;52.154;4.498;2023-07-31T00:12:12;37.05;;;8.30;;
72413;SDS011;60995;52.154;4.498;2023-07-31T00:14:28;30.17;;;7.45;;
72413;SDS011;60995;52.154;4.498;2023-07-31T00:16:45;27.65;;;7.05;;
72413;SDS011;60995;52.154;4.498;2023-07-31T00:19:01;28.95;;;7.25;;
72413;SDS011;60995;52.154;4.498;2023-07-31T00:21:17;31.30;;;6.95;;
72413;SDS011;60995;52.154;4.498;2023-07-31T00:23:33;29.08;;;6.43;;
72413;SDS011;60995;52.154;4.498;2023-07-31T00:25:50;25.92;;;5.57;;
72413;SDS011;60995;52.154;4.498;2023-07-31T00:28:06;19.27;;;5.28;;
72413;SDS011;60995;52.154;4.498;2023-07-31T00:30:22;15.40;;;4.85;;
72413;SDS011;60995;52.154;4.498;2023-07-31T00:32:40;19.80;;;5.70;;
72413;SDS011;60995;52.154;4.498;2023-07-31T00:34:57;26.23;;;6.93;;
72413;SDS011;60995;52.154;4.498;2023-07-31T00:37:13;21.15;;;5.90;;
72413;SDS011;60995;52.154;4.498;2023-07-31T00:39:31;25.40;;;6.32;;
72413;SDS011;60995;52.154;4.498;2023-07-31T00:41:47;27.48;;;6.68;;
72413;SDS011;60995;52.154;4.498;2023-07-31T00:44:03;31.67;;;8.25;;
72413;SDS011;60995;52.154;4.498;2023-07-31T00:46:19;36.22;;;8.05;;
72413;SDS011;60995;52.154;4.498;2023-07-31T00:48:37;36.60;;;7.65;;
72413;SDS011;60995;52.154;4.498;2023-07-31T00:50:55;40.72;;;9.68;;
72413;SDS011;60995;52.154;4.498;2023-07-31T00:53:11;36.13;;;8.98;;
72413;SDS011;60995;52.154;4.498;2023-07-31T00:55:28;37.78;;;10.02;;
72413;SDS011;60995;52.154;4.498;2023-07-31T00:57:47;39.30;;;9.75;;
72413;SDS011;60995;52.154;4.498;2023-07-31T01:00:05;39.78;;;9.57;;
72413;SDS011;60995;52.154;4.498;2023-07-31T01:02:22;35.63;;;8.25;;
72413;SDS011;60995;52.154;4.498;2023-07-31T01:04:38;52.17;;;9.90;;
72413;SDS011;60995;52.154;4.498;2023-07-31T01:10:04;41.88;;;10.02;;
72413;SDS011;60995;52.154;4.498;2023-07-31T01:12:32;42.40;;;9.48;;
72413;SDS011;60995;52.154;4.498;2023-07-31T01:14:51;37.25;;;9.65;;
72413;SDS011;60995;52.154;4.498;2023-07-31T01:17:17;34.47;;;8.63;;
72413;SDS011;60995;52.154;4.498;2023-07-31T01:19:33;41.72;;;9.75;;
72413;SDS011;60995;52.154;4.498;2023-07-31T01:27:17;46.72;;;10.55;;
72413;SDS011;60995;52.154;4.498;2023-07-31T01:32:01;40.22;;;10.27;;
72413;SDS011;60995;52.154;4.498;2023-07-31T01:34:19;34.50;;;9.45;;
72413;SDS011;60995;52.154;4.498;2023-07-31T01:36:37;45.35;;;9.85;;
72413;SDS011;60995;52.154;4.498;2023-07-31T01:39:00;42.15;;;10.13;;
72413;SDS011;60995;52.154;4.498;2023-07-31T01:41:18;38.65;;;9.95;;
72413;SDS011;60995;52.154;4.498;2023-07-31T01:43:34;40.95;;;9.55;;
72413;SDS011;60995;52.154;4.498;2023-07-31T01:45:50;34.70;;;9.60;;
72413;SDS011;60995;52.154;4.498;2023-07-31T01:48:07;42.10;;;10.13;;
72413;SDS011;60995;52.154;4.498;2023-07-31T01:50:23;41.50;;;9.75;;
72413;SDS011;60995;52.154;4.498;2023-07-31T01:52:39;38.65;;;8.30;;
72413;SDS011;60995;52.154;4.498;2023-07-31T01:54:55;36.97;;;9.00;;
72413;SDS011;60995;52.154;4.498;2023-07-31T01:57:12;33.35;;;8.80;;
72413;SDS011;60995;52.154;4.498;2023-07-31T01:59:28;36.25;;;8.75;;
72413;SDS011;60995;52.154;4.498;2023-07-31T02:01:44;40.20;;;9.00;;
72413;SDS011;60995;52.154;4.498;2023-07-31T02:04:00;38.08;;;9.48;;
72413;SDS011;60995;52.154;4.498;2023-07-31T02:06:17;35.50;;;8.63;;
72413;SDS011;60995;52.154;4.498;2023-07-31T02:08:33;38.05;;;9.57;;
72413;SDS011;60995;52.154;4.498;2023-07-31T02:10:49;32.35;;;7.55;;
72413;SDS011;60995;52.154;4.498;2023-07-31T02:13:06;43.15;;;9.60;;
72413;SDS011;60995;52.154;4.498;2023-07-31T02:15:22;38.08;;;8.50;;
72413;SDS011;60995;52.154;4.498;2023-07-31T02:17:38;35.17;;;8.80;;
72413;SDS011;60995;52.154;4.498;2023-07-31T02:19:54;35.05;;;8.50;;
72413;SDS011;60995;52.154;4.498;2023-07-31T02:22:11;38.08;;;8.65;;
72413;SDS011;60995;52.154;4.498;2023-07-31T02:24:28;31.65;;;9.07;;
72413;SDS011;60995;52.154;4.498;2023-07-31T02:26:44;33.30;;;8.85;;
72413;SDS011;60995;52.154;4.498;2023-07-31T02:29:00;41.85;;;9.82;;
72413;SDS011;60995;52.154;4.498;2023-07-31T02:31:16;39.58;;;8.77;;
72413;SDS011;60995;52.154;4.498;2023-07-31T02:33:33;37.53;;;8.27;;
72413;SDS011;60995;52.154;4.498;2023-07-31T02:35:49;41.95;;;8.70;;
72413;SDS011;60995;52.154;4.498;2023-07-31T02:38:05;40.45;;;8.60;;
72413;SDS011;60995;52.154;4.498;2023-07-31T02:40:21;37.90;;;8.55;;
72413;SDS011;60995;52.154;4.498;2023-07-31T02:42:38;41.22;;;8.88;;
72413;SDS011;60995;52.154;4.498;2023-07-31T02:44:54;35.13;;;8.77;;
72413;SDS011;60995;52.154;4.498;2023-07-31T02:47:11;36.13;;;7.90;;
72413;SDS011;60995;52.154;4.498;2023-07-31T02:49:27;36.08;;;8.77;;
72413;SDS011;60995;52.154;4.498;2023-07-31T02:51:44;35.30;;;8.80;;
72413;SDS011;60995;52.154;4.498;2023-07-31T02:54:00;35.40;;;8.45;;
72413;SDS011;60995;52.154;4.498;2023-07-31T02:56:16;30.60;;;7.88;;
72413;SDS011;60995;52.154;4.498;2023-07-31T02:58:33;37.20;;;8.25;;
72413;SDS011;60995;52.154;4.498;2023-07-31T03:00:49;33.72;;;7.82;;
72413;SDS011;60995;52.154;4.498;2023-07-31T03:03:06;31.65;;;8.10;;
72413;SDS011;60995;52.154;4.498;2023-07-31T03:05:26;33.75;;;8.40;;
72413;SDS011;60995;52.154;4.498;2023-07-31T03:07:42;32.05;;;7.60;;
72413;SDS011;60995;52.154;4.498;2023-07-31T03:09:58;38.92;;;8.48;;
72413;SDS011;60995;52.154;4.498;2023-07-31T03:12:15;35.33;;;8.43;;
72413;SDS011;60995;52.154;4.498;2023-07-31T03:14:31;35.65;;;8.30;;
72413;SDS011;60995;52.154;4.498;2023-07-31T03:16:48;30.83;;;8.40;;
72413;SDS011;60995;52.154;4.498;2023-07-31T03:19:05;37.33;;;8.38;;
72413;SDS011;60995;52.154;4.498;2023-07-31T03:21:21;29.27;;;8.27;;
72413;SDS011;60995;52.154;4.498;2023-07-31T03:23:37;38.83;;;8.57;;
72413;SDS011;60995;52.154;4.498;2023-07-31T03:25:58;38.22;;;8.57;;
72413;SDS011;60995;52.154;4.498;2023-07-31T03:28:16;33.15;;;8.50;;
72413;SDS011;60995;52.154;4.498;2023-07-31T03:30:32;40.88;;;9.77;;
72413;SDS011;60995;52.154;4.498;2023-07-31T03:32:53;43.13;;;11.02;;
72413;SDS011;60995;52.154;4.498;2023-07-31T03:35:10;36.85;;;8.73;;
72413;SDS011;60995;52.154;4.498;2023-07-31T03:37:26;42.03;;;9.80;;
72413;SDS011;60995;52.154;4.498;2023-07-31T03:39:42;34.17;;;9.88;;
72413;SDS011;60995;52.154;4.498;2023-07-31T03:41:58;40.10;;;10.00;;
72413;SDS011;60995;52.154;4.498;2023-07-31T03:44:15;44.70;;;10.13;;
72413;SDS011;60995;52.154;4.498;2023-07-31T03:46:31;36.33;;;9.88;;
72413;SDS011;60995;52.154;4.498;2023-07-31T03:48:47;40.38;;;9.05;;
72413;SDS011;60995;52.154;4.498;2023-07-31T03:51:04;46.65;;;9.15;;
72413;SDS011;60995;52.154;4.498;2023-07-31T03:53:20;39.83;;;9.98;;
72413;SDS011;60995;52.154;4.498;2023-07-31T03:55:37;47.60;;;9.13;;
72413;SDS011;60995;52.154;4.498;2023-07-31T03:57:53;39.95;;;9.20;;
72413;SDS011;60995;52.154;4.498;2023-07-31T04:00:10;40.50;;;9.02;;
72413;SDS011;60995;52.154;4.498;2023-07-31T04:02:26;34.00;;;8.02;;
72413;SDS011;60995;52.154;4.498;2023-07-31T04:04:43;29.00;;;6.68;;
72413;SDS011;60995;52.154;4.498;2023-07-31T04:06:59;30.85;;;6.65;;
72413;SDS011;60995;52.154;4.498;2023-07-31T04:09:15;24.35;;;6.43;;
72413;SDS011;60995;52.154;4.498;2023-07-31T04:11:31;26.63;;;6.15;;
72413;SDS011;60995;52.154;4.498;2023-07-31T04:13:48;21.13;;;5.78;;
72413;SDS011;60995;52.154;4.498;2023-07-31T04:16:04;25.75;;;5.82;;
72413;SDS011;60995;52.154;4.498;2023-07-31T04:18:22;25.00;;;6.45;;
72413;SDS011;60995;52.154;4.498;2023-07-31T04:20:40;19.58;;;5.25;;
72413;SDS011;60995;52.154;4.498;2023-07-31T04:22:57;19.75;;;5.38;;
72413;SDS011;60995;52.154;4.498;2023-07-31T04:25:13;13.73;;;4.10;;
72413;SDS011;60995;52.154;4.498;2023-07-31T04:27:29;16.95;;;4.35;;
72413;SDS011;60995;52.154;4.498;2023-07-31T04:29:45;15.18;;;3.75;;
72413;SDS011;60995;52.154;4.498;2023-07-31T04:32:03;14.55;;;3.80;;
72413;SDS011;60995;52.154;4.498;2023-07-31T04:34:20;11.50;;;3.40;;
72413;SDS011;60995;52.154;4.498;2023-07-31T04:36:36;11.00;;;3.20;;
72413;SDS011;60995;52.154;4.498;2023-07-31T04:38:52;9.35;;;2.70;;
72413;SDS011;60995;52.154;4.498;2023-07-31T04:41:08;10.65;;;3.08;;
72413;SDS011;60995;52.154;4.498;2023-07-31T04:43:25;9.90;;;2.92;;
72413;SDS011;60995;52.154;4.498;2023-07-31T04:45:47;7.70;;;2.40;;
72413;SDS011;60995;52.154;4.498;2023-07-31T04:48:04;8.05;;;2.40;;
72413;SDS011;60995;52.154;4.498;2023-07-31T04:50:21;5.22;;;1.65;;
72413;SDS011;60995;52.154;4.498;2023-07-31T04:52:37;7.32;;;1.85;;
72413;SDS011;60995;52.154;4.498;2023-07-31T04:54:53;8.05;;;2.13;;
72413;SDS011;60995;52.154;4.498;2023-07-31T04:57:09;9.00;;;2.00;;
72413;SDS011;60995;52.154;4.498;2023-07-31T04:59:26;7.88;;;1.42;;
72413;SDS011;60995;52.154;4.498;2023-07-31T05:01:42;7.50;;;1.70;;
72413;SDS011;60995;52.154;4.498;2023-07-31T05:03:58;8.90;;;1.73;;
72413;SDS011;60995;52.154;4.498;2023-07-31T05:06:15;6.00;;;1.67;;
72413;SDS011;60995;52.154;4.498;2023-07-31T05:08:31;6.68;;;1.80;;
72413;SDS011;60995;52.154;4.498;2023-07-31T05:10:48;6.60;;;1.98;;
72413;SDS011;60995;52.154;4.498;2023-07-31T05:13:05;8.00;;;2.28;;
72413;SDS011;60995;52.154;4.498;2023-07-31T05:15:21;11.70;;;2.10;;
72413;SDS011;60995;52.154;4.498;2023-07-31T05:17:37;5.78;;;1.55;;
72413;SDS011;60995;52.154;4.498;2023-07-31T05:19:54;6.80;;;2.00;;
72413;SDS011;60995;52.154;4.498;2023-07-31T05:22:10;5.25;;;1.75;;
72413;SDS011;60995;52.154;4.498;2023-07-31T05:24:26;6.03;;;2.08;;
72413;SDS011;60995;52.154;4.498;2023-07-31T05:26:42;6.70;;;2.47;;
72413;SDS011;60995;52.154;4.498;2023-07-31T05:28:59;7.70;;;2.10;;
72413;SDS011;60995;52.154;4.498;2023-07-31T05:31:15;8.02;;;2.45;;
72413;SDS011;60995;52.154;4.498;2023-07-31T05:33:31;5.82;;;2.40;;
72413;SDS011;60995;52.154;4.498;2023-07-31T05:35:47;6.47;;;2.25;;
72413;SDS011;60995;52.154;4.498;2023-07-31T05:38:04;6.55;;;2.35;;
72413;SDS011;60995;52.154;4.498;2023-07-31T05:40:20;6.80;;;2.60;;
72413;SDS011;60995;52.154;4.498;2023-07-31T05:42:36;5.28;;;2.35;;
72413;SDS011;60995;52.154;4.498;2023-07-31T05:44:54;7.25;;;2.70;;
72413;SDS011;60995;52.154;4.498;2023-07-31T05:47:10;6.80;;;2.45;;
72413;SDS011;60995;52.154;4.498;2023-07-31T05:49:26;6.55;;;2.80;;
72413;SDS011;60995;52.154;4.498;2023-07-31T05:51:43;6.18;;;2.95;;
72413;SDS011;60995;52.154;4.498;2023-07-31T05:53:59;6.68;;;2.83;;
72413;SDS011;60995;52.154;4.498;2023-07-31T05:56:15;7.40;;;2.65;;
72413;SDS011;60995;52.154;4.498;2023-07-31T05:58:31;7.35;;;2.50;;
72413;SDS011;60995;52.154;4.498;2023-07-31T06:00:48;7.55;;;2.42;;
72413;SDS011;60995;52.154;4.498;2023-07-31T06:03:04;5.85;;;2.33;;
72413;SDS011;60995;52.154;4.498;2023-07-31T06:05:20;6.80;;;2.38;;
72413;SDS011;60995;52.154;4.498;2023-07-31T06:07:36;6.43;;;2.30;;
72413;SDS011;60995;52.154;4.498;2023-07-31T06:09:53;7.22;;;2.35;;
72413;SDS011;60995;52.154;4.498;2023-07-31T06:12:10;6.25;;;2.15;;
72413;SDS011;60995;52.154;4.498;2023-07-31T06:14:27;6.75;;;1.88;;
72413;SDS011;60995;52.154;4.498;2023-07-31T06:16:44;6.65;;;2.25;;
72413;SDS011;60995;52.154;4.498;2023-07-31T06:19:00;7.40;;;2.17;;
72413;SDS011;60995;52.154;4.498;2023-07-31T06:21:16;10.90;;;2.60;;
72413;SDS011;60995;52.154;4.498;2023-07-31T06:23:33;7.60;;;2.40;;
72413;SDS011;60995;52.154;4.498;2023-07-31T06:25:49;10.43;;;2.58;;
72413;SDS011;60995;52.154;4.498;2023-07-31T06:28:05;10.02;;;2.13;;
72413;SDS011;60995;52.154;4.498;2023-07-31T06:30:21;11.68;;;3.00;;
72413;SDS011;60995;52.154;4.498;2023-07-31T06:32:38;9.77;;;3.40;;
72413;SDS011;60995;52.154;4.498;2023-07-31T06:34:56;13.93;;;2.80;;
72413;SDS011;60995;52.154;4.498;2023-07-31T06:37:12;10.10;;;2.17;;
72413;SDS011;60995;52.154;4.498;2023-07-31T06:39:29;10.50;;;2.63;;
72413;SDS011;60995;52.154;4.498;2023-07-31T06:41:45;10.02;;;2.95;;
72413;SDS011;60995;52.154;4.498;2023-07-31T06:44:01;15.38;;;2.97;;
72413;SDS011;60995;52.154;4.498;2023-07-31T06:46:17;14.20;;;3.70;;
72413;SDS011;60995;52.154;4.498;2023-07-31T06:48:34;15.73;;;3.22;;
72413;SDS011;60995;52.154;4.498;2023-07-31T06:50:50;14.13;;;3.35;;
72413;SDS011;60995;52.154;4.498;2023-07-31T06:53:06;21.10;;;3.75;;
72413;SDS011;60995;52.154;4.498;2023-07-31T06:55:23;19.00;;;3.88;;
72413;SDS011;60995;52.154;4.498;2023-07-31T06:57:40;16.60;;;3.85;;
72413;SDS011;60995;52.154;4.498;2023-07-31T06:59:56;18.10;;;3.92;;
72413;SDS011;60995;52.154;4.498;2023-07-31T07:02:12;13.77;;;3.33;;
72413;SDS011;60995;52.154;4.498;2023-07-31T07:04:35;14.85;;;3.83;;
72413;SDS011;60995;52.154;4.498;2023-07-31T07:06:51;21.95;;;4.10;;
72413;SDS011;60995;52.154;4.498;2023-07-31T07:09:08;22.13;;;4.55;;
72413;SDS011;60995;52.154;4.498;2023-07-31T07:11:24;19.27;;;4.10;;
72413;SDS011;60995;52.154;4.498;2023-07-31T07:13:40;19.70;;;4.03;;
72413;SDS011;60995;52.154;4.498;2023-07-31T07:15:56;16.02;;;4.13;;
72413;SDS011;60995;52.154;4.498;2023-07-31T07:18:13;19.95;;;4.40;;
72413;SDS011;60995;52.154;4.498;2023-07-31T07:20:29;21.10;;;4.60;;
72413;SDS011;60995;52.154;4.498;2023-07-31T07:22:46;15.00;;;4.40;;
72413;SDS011;60995;52.154;4.498;2023-07-31T07:25:04;16.75;;;4.00;;
72413;SDS011;60995;52.154;4.498;2023-07-31T07:27:22;20.30;;;4.53;;
72413;SDS011;60995;52.154;4.498;2023-07-31T07:29:39;19.23;;;4.10;;
72413;SDS011;60995;52.154;4.498;2023-07-31T07:31:55;14.05;;;3.95;;
72413;SDS011;60995;52.154;4.498;2023-07-31T07:34:11;17.38;;;3.53;;
72413;SDS011;60995;52.154;4.498;2023-07-31T07:36:28;18.52;;;4.72;;
72413;SDS011;60995;52.154;4.498;2023-07-31T07:38:44;17.08;;;4.13;;
72413;SDS011;60995;52.154;4.498;2023-07-31T07:41:00;16.30;;;3.88;;
72413;SDS011;60995;52.154;4.498;2023-07-31T07:43:17;18.05;;;4.18;;
72413;SDS011;60995;52.154;4.498;2023-07-31T07:45:33;19.33;;;4.10;;
72413;SDS011;60995;52.154;4.498;2023-07-31T07:47:49;17.63;;;4.00;;
72413;SDS011;60995;52.154;4.498;2023-07-31T07:50:06;20.90;;;3.92;;
72413;SDS011;60995;52.154;4.498;2023-07-31T07:52:23;16.35;;;3.40;;
72413;SDS011;60995;52.154;4.498;2023-07-31T07:54:39;18.35;;;4.15;;
72413;SDS011;60995;52.154;4.498;2023-07-31T07:56:55;22.23;;;4.07;;
72413;SDS011;60995;52.154;4.498;2023-07-31T07:59:11;16.73;;;4.15;;
72413;SDS011;60995;52.154;4.498;2023-07-31T08:01:28;19.85;;;3.90;;
72413;SDS011;60995;52.154;4.498;2023-07-31T08:03:44;15.38;;;3.35;;
72413;SDS011;60995;52.154;4.498;2023-07-31T08:06:01;21.65;;;4.30;;
72413;SDS011;60995;52.154;4.498;2023-07-31T08:08:17;20.92;;;4.00;;
72413;SDS011;60995;52.154;4.498;2023-07-31T08:10:34;18.20;;;3.28;;
72413;SDS011;60995;52.154;4.498;2023-07-31T08:12:51;21.40;;;3.70;;
72413;SDS011;60995;52.154;4.498;2023-07-31T08:15:07;19.05;;;3.83;;
72413;SDS011;60995;52.154;4.498;2023-07-31T08:17:24;27.73;;;4.95;;
72413;SDS011;60995;52.154;4.498;2023-07-31T08:19:40;23.88;;;4.53;;
72413;SDS011;60995;52.154;4.498;2023-07-31T08:21:56;29.92;;;4.60;;
72413;SDS011;60995;52.154;4.498;2023-07-31T08:24:13;26.55;;;4.60;;
72413;SDS011;60995;52.154;4.498;2023-07-31T08:26:29;27.48;;;4.13;;
72413;SDS011;60995;52.154;4.498;2023-07-31T08:28:45;25.67;;;4.13;;
72413;SDS011;60995;52.154;4.498;2023-07-31T08:31:02;21.92;;;3.90;;
72413;SDS011;60995;52.154;4.498;2023-07-31T08:33:18;26.77;;;4.40;;
72413;SDS011;60995;52.154;4.498;2023-07-31T08:35:34;27.90;;;4.68;;
72413;SDS011;60995;52.154;4.498;2023-07-31T08:37:50;26.45;;;4.78;;
72413;SDS011;60995;52.154;4.498;2023-07-31T08:40:07;32.58;;;5.30;;
72413;SDS011;60995;52.154;4.498;2023-07-31T08:42:24;26.23;;;4.07;;
72413;SDS011;60995;52.154;4.498;2023-07-31T08:44:41;25.75;;;4.78;;
72413;SDS011;60995;52.154;4.498;2023-07-31T08:46:59;21.63;;;4.30;;
72413;SDS011;60995;52.154;4.498;2023-07-31T08:49:16;22.85;;;4.15;;
72413;SDS011;60995;52.154;4.498;2023-07-31T08:51:36;26.27;;;4.28;;
72413;SDS011;60995;52.154;4.498;2023-07-31T08:53:53;23.83;;;4.30;;
72413;SDS011;60995;52.154;4.498;2023-07-31T08:56:10;24.92;;;3.97;;
72413;SDS011;60995;52.154;4.498;2023-07-31T08:58:32;27.35;;;4.97;;
72413;SDS011;60995;52.154;4.498;2023-07-31T09:00:52;26.10;;;3.92;;
72413;SDS011;60995;52.154;4.498;2023-07-31T09:03:14;25.50;;;5.13;;
72413;SDS011;60995;52.154;4.498;2023-07-31T09:05:33;27.05;;;4.28;;
72413;SDS011;60995;52.154;4.498;2023-07-31T09:07:52;23.88;;;3.50;;
72413;SDS011;60995;52.154;4.498;2023-07-31T09:10:11;18.15;;;4.03;;
72413;SDS011;60995;52.154;4.498;2023-07-31T09:12:27;23.15;;;3.90;;
72413;SDS011;60995;52.154;4.498;2023-07-31T09:14:44;19.50;;;3.70;;
72413;SDS011;60995;52.154;4.498;2023-07-31T09:17:02;20.48;;;3.75;;
72413;SDS011;60995;52.154;4.498;2023-07-31T09:19:24;25.27;;;3.55;;
72413;SDS011;60995;52.154;4.498;2023-07-31T09:21:59;21.42;;;3.88;;
72413;SDS011;60995;52.154;4.498;2023-07-31T09:24:26;18.40;;;3.63;;
72413;SDS011;60995;52.154;4.498;2023-07-31T09:26:47;19.52;;;3.50;;
72413;SDS011;60995;52.154;4.498;2023-07-31T09:29:04;18.58;;;3.25;;
72413;SDS011;60995;52.154;4.498;2023-07-31T09:31:33;19.27;;;3.50;;
72413;SDS011;60995;52.154;4.498;2023-07-31T09:33:56;13.52;;;2.88;;
72413;SDS011;60995;52.154;4.498;2023-07-31T09:36:13;17.80;;;3.25;;
72413;SDS011;60995;52.154;4.498;2023-07-31T09:38:29;15.30;;;3.25;;
72413;SDS011;60995;52.154;4.498;2023-07-31T09:40:47;20.67;;;3.25;;
72413;SDS011;60995;52.154;4.498;2023-07-31T09:43:05;14.45;;;2.78;;
72413;SDS011;60995;52.154;4.498;2023-07-31T09:45:23;15.18;;;3.28;;
72413;SDS011;60995;52.154;4.498;2023-07-31T09:47:45;16.95;;;3.60;;
72413;SDS011;60995;52.154;4.498;2023-07-31T09:52:24;16.58;;;3.35;;
72413;SDS011;60995;52.154;4.498;2023-07-31T09:54:43;17.15;;;3.67;;
72413;SDS011;60995;52.154;4.498;2023-07-31T09:56:59;17.73;;;3.20;;
72413;SDS011;60995;52.154;4.498;2023-07-31T09:59:19;20.20;;;3.40;;
72413;SDS011;60995;52.154;4.498;2023-07-31T10:01:36;17.67;;;3.85;;
72413;SDS011;60995;52.154;4.498;2023-07-31T10:03:54;21.30;;;3.83;;
72413;SDS011;60995;52.154;4.498;2023-07-31T10:06:13;17.35;;;3.50;;
72413;SDS011;60995;52.154;4.498;2023-07-31T10:08:32;16.33;;;3.17;;
72413;SDS011;60995;52.154;4.498;2023-07-31T10:10:52;37.03;;;6.68;;
72413;SDS011;60995;52.154;4.498;2023-07-31T10:13:09;16.58;;;4.10;;
72413;SDS011;60995;52.154;4.498;2023-07-31T10:15:26;16.63;;;3.78;;
72413;SDS011;60995;52.154;4.498;2023-07-31T10:17:45;13.77;;;3.40;;
72413;SDS011;60995;52.154;4.498;2023-07-31T10:20:04;22.92;;;3.20;;
72413;SDS011;60995;52.154;4.498;2023-07-31T10:22:23;15.55;;;3.88;;
72413;SDS011;60995;52.154;4.498;2023-07-31T10:24:41;14.02;;;2.90;;
72413;SDS011;60995;52.154;4.498;2023-07-31T10:26:59;16.10;;;3.33;;
72413;SDS011;60995;52.154;4.498;2023-07-31T10:29:17;14.43;;;2.88;;
72413;SDS011;60995;52.154;4.498;2023-07-31T10:31:36;14.73;;;3.03;;
72413;SDS011;60995;52.154;4.498;2023-07-31T10:33:52;18.38;;;3.47;;
72413;SDS011;60995;52.154;4.498;2023-07-31T10:36:13;18.92;;;2.97;;
72413;SDS011;60995;52.154;4.498;2023-07-31T10:38:33;15.55;;;3.20;;
72413;SDS011;60995;52.154;4.498;2023-07-31T10:40:50;19.70;;;3.72;;
72413;SDS011;60995;52.154;4.498;2023-07-31T10:43:06;20.05;;;3.35;;
72413;SDS011;60995;52.154;4.498;2023-07-31T10:47:49;15.75;;;3.15;;
72413;SDS011;60995;52.154;4.498;2023-07-31T10:50:19;16.88;;;3.28;;
72413;SDS011;60995;52.154;4.498;2023-07-31T10:52:39;16.20;;;3.25;;
72413;SDS011;60995;52.154;4.498;2023-07-31T10:55:42;16.40;;;3.22;;
72413;SDS011;60995;52.154;4.498;2023-07-31T10:57:47;13.27;;;3.15;;
72413;SDS011;60995;52.154;4.498;2023-07-31T11:00:22;18.30;;;3.13;;
72413;SDS011;60995;52.154;4.498;2023-07-31T11:02:46;13.85;;;3.10;;
72413;SDS011;60995;52.154;4.498;2023-07-31T11:05:22;15.55;;;3.20;;
72413;SDS011;60995;52.154;4.498;2023-07-31T11:08:25;15.10;;;3.30;;
72413;SDS011;60995;52.154;4.498;2023-07-31T11:10:45;16.48;;;2.90;;
72413;SDS011;60995;52.154;4.498;2023-07-31T11:13:06;11.65;;;2.58;;
72413;SDS011;60995;52.154;4.498;2023-07-31T11:15:22;16.40;;;2.60;;
72413;SDS011;60995;52.154;4.498;2023-07-31T11:17:43;11.38;;;2.42;;
72413;SDS011;60995;52.154;4.498;2023-07-31T11:19:59;12.20;;;2.70;;
72413;SDS011;60995;52.154;4.498;2023-07-31T11:22:15;16.17;;;2.72;;
72413;SDS011;60995;52.154;4.498;2023-07-31T11:24:33;11.55;;;2.45;;
72413;SDS011;60995;52.154;4.498;2023-07-31T11:26:53;13.43;;;2.58;;
72413;SDS011;60995;52.154;4.498;2023-07-31T11:29:12;11.90;;;2.83;;
72413;SDS011;60995;52.154;4.498;2023-07-31T11:31:29;13.05;;;2.88;;
72413;SDS011;60995;52.154;4.498;2023-07-31T11:33:45;14.13;;;2.50;;
72413;SDS011;60995;52.154;4.498;2023-07-31T11:36:02;15.10;;;2.67;;
72413;SDS011;60995;52.154;4.498;2023-07-31T11:38:32;15.88;;;2.88;;
72413;SDS011;60995;52.154;4.498;2023-07-31T11:40:49;11.48;;;2.25;;
72413;SDS011;60995;52.154;4.498;2023-07-31T11:43:07;11.93;;;2.13;;
72413;SDS011;60995;52.154;4.498;2023-07-31T11:45:26;15.85;;;3.08;;
72413;SDS011;60995;52.154;4.498;2023-07-31T11:47:43;12.88;;;2.80;;
72413;SDS011;60995;52.154;4.498;2023-07-31T11:50:02;10.98;;;2.47;;
72413;SDS011;60995;52.154;4.498;2023-07-31T11:52:21;10.27;;;2.38;;
72413;SDS011;60995;52.154;4.498;2023-07-31T11:54:39;9.38;;;2.40;;
72413;SDS011;60995;52.154;4.498;2023-07-31T11:56:56;11.40;;;2.65;;
72413;SDS011;60995;52.154;4.498;2023-07-31T11:59:16;13.45;;;2.35;;
72413;SDS011;60995;52.154;4.498;2023-07-31T12:01:33;13.05;;;2.40;;
72413;SDS011;60995;52.154;4.498;2023-07-31T12:03:50;9.80;;;2.30;;
72413;SDS011;60995;52.154;4.498;2023-07-31T12:06:08;10.63;;;2.28;;
72413;SDS011;60995;52.154;4.498;2023-07-31T12:08:24;12.82;;;2.47;;
72413;SDS011;60995;52.154;4.498;2023-07-31T12:10:41;10.82;;;2.10;;
72413;SDS011;60995;52.154;4.498;2023-07-31T12:13:04;9.98;;;2.13;;
72413;SDS011;60995;52.154;4.498;2023-07-31T12:17:58;11.80;;;2.40;;
72413;SDS011;60995;52.154;4.498;2023-07-31T12:20:14;12.07;;;2.00;;
72413;SDS011;60995;52.154;4.498;2023-07-31T12:22:30;8.95;;;2.20;;
72413;SDS011;60995;52.154;4.498;2023-07-31T12:24:47;9.73;;;2.38;;
72413;SDS011;60995;52.154;4.498;2023-07-31T12:27:08;12.00;;;2.47;;
72413;SDS011;60995;52.154;4.498;2023-07-31T12:29:34;8.15;;;2.00;;
72413;SDS011;60995;52.154;4.498;2023-07-31T12:31:51;13.52;;;2.33;;
72413;SDS011;60995;52.154;4.498;2023-07-31T12:34:18;11.50;;;2.40;;
72413;SDS011;60995;52.154;4.498;2023-07-31T12:36:39;11.60;;;2.25;;
72413;SDS011;60995;52.154;4.498;2023-07-31T12:38:55;12.32;;;2.25;;
72413;SDS011;60995;52.154;4.498;2023-07-31T12:41:13;9.07;;;2.30;;
72413;SDS011;60995;52.154;4.498;2023-07-31T12:43:30;11.48;;;2.15;;
72413;SDS011;60995;52.154;4.498;2023-07-31T12:45:46;7.20;;;1.88;;
72413;SDS011;60995;52.154;4.498;2023-07-31T12:48:03;8.73;;;2.08;;
72413;SDS011;60995;52.154;4.498;2023-07-31T12:50:20;9.93;;;2.17;;
72413;SDS011;60995;52.154;4.498;2023-07-31T12:52:36;10.00;;;2.33;;
72413;SDS011;60995;52.154;4.498;2023-07-31T12:54:52;9.20;;;1.98;;
72413;SDS011;60995;52.154;4.498;2023-07-31T12:57:09;11.68;;;2.17;;
72413;SDS011;60995;52.154;4.498;2023-07-31T12:59:25;9.10;;;2.00;;
72413;SDS011;60995;52.154;4.498;2023-07-31T13:01:41;9.27;;;1.80;;
72413;SDS011;60995;52.154;4.498;2023-07-31T13:03:57;8.13;;;1.70;;
72413;SDS011;60995;52.154;4.498;2023-07-31T13:06:14;6.30;;;1.45;;
72413;SDS011;60995;52.154;4.498;2023-07-31T13:08:31;4.88;;;1.60;;
72413;SDS011;60995;52.154;4.498;2023-07-31T13:10:47;6.82;;;1.52;;
72413;SDS011;60995;52.154;4.498;2023-07-31T13:13:03;9.27;;;1.48;;
72413;SDS011;60995;52.154;4.498;2023-07-31T13:15:19;5.93;;;1.50;;
72413;SDS011;60995;52.154;4.498;2023-07-31T13:17:36;8.50;;;2.08;;
72413;SDS011;60995;52.154;4.498;2023-07-31T13:19:53;9.10;;;1.58;;
72413;SDS011;60995;52.154;4.498;2023-07-31T13:22:09;5.70;;;1.35;;
72413;SDS011;60995;52.154;4.498;2023-07-31T13:24:26;6.00;;;1.60;;
72413;SDS011;60995;52.154;4.498;2023-07-31T13:26:42;9.80;;;2.47;;
72413;SDS011;60995;52.154;4.498;2023-07-31T13:28:58;7.68;;;2.00;;
72413;SDS011;60995;52.154;4.498;2023-07-31T13:31:14;6.53;;;2.00;;
72413;SDS011;60995;52.154;4.498;2023-07-31T13:33:31;12.52;;;2.80;;
72413;SDS011;60995;52.154;4.498;2023-07-31T13:35:47;11.20;;;2.63;;
72413;SDS011;60995;52.154;4.498;2023-07-31T13:38:04;12.18;;;3.00;;
72413;SDS011;60995;52.154;4.498;2023-07-31T13:40:21;10.95;;;2.80;;
72413;SDS011;60995;52.154;4.498;2023-07-31T13:42:37;13.00;;;2.97;;
72413;SDS011;60995;52.154;4.498;2023-07-31T13:44:53;17.77;;;3.53;;
72413;SDS011;60995;52.154;4.498;2023-07-31T13:47:11;12.85;;;3.08;;
72413;SDS011;60995;52.154;4.498;2023-07-31T13:49:28;18.13;;;3.47;;
72413;SDS011;60995;52.154;4.498;2023-07-31T13:51:46;13.07;;;2.60;;
72413;SDS011;60995;52.154;4.498;2023-07-31T13:54:02;18.48;;;3.45;;
72413;SDS011;60995;52.154;4.498;2023-07-31T13:56:18;12.10;;;2.70;;